sensor_id;sensor_type;location;lat;lon;timestamp;temperature;humidity
71155;DHT22;59375;53.216;5.728;2023-02-01T00:02:23;6.40;99.90
71155;DHT22;59375;53.216;5.728;2023-02-01T00:04:48;6.50;99.90
71155;DHT22;59375;53.216;5.728;2023-02-01T00:07:13;6.50;99.90
71155;DHT22;59375;53.216;5.728;2023-02-01T00:09:39;6.50;99.90
71155;DHT22;59375;53.216;5.728;2023-02-01T00:12:04;6.50;99.90
71155;DHT22;59375;53.216;5.728;2023-02-01T00:14:30;6.50;99.90
71155;DHT22;59375;53.216;5.728;2023-02-01T00:16:55;6.50;99.90
71155;DHT22;59375;53.216;5.728;2023-02-01T00:19:21;6.50;99.90
71155;DHT22;59375;53.216;5.728;2023-02-01T00:21:46;6.50;99.90
71155;DHT22;59375;53.216;5.728;2023-02-01T00:24:12;6.50;99.90
71155;DHT22;59375;53.216;5.728;2023-02-01T00:29:04;6.50;99.90
71155;DHT22;59375;53.216;5.728;2023-02-01T00:31:29;6.50;99.90
71155;DHT22;59375;53.216;5.728;2023-02-01T00:33:55;6.50;99.90
71155;DHT22;59375;53.216;5.728;2023-02-01T00:36:20;6.60;99.90
71155;DHT22;59375;53.216;5.728;2023-02-01T00:38:46;6.60;99.90
71155;DHT22;59375;53.216;5.728;2023-02-01T00:41:12;6.60;99.90
71155;DHT22;59375;53.216;5.728;2023-02-01T00:43:38;6.60;99.90
71155;DHT22;59375;53.216;5.728;2023-02-01T00:46:03;6.60;99.90
71155;DHT22;59375;53.216;5.728;2023-02-01T00:48:29;6.60;99.90
71155;DHT22;59375;53.216;5.728;2023-02-01T00:50:58;6.60;99.90
71155;DHT22;59375;53.216;5.728;2023-02-01T00:53:23;6.70;99.90
71155;DHT22;59375;53.216;5.728;2023-02-01T00:55:49;6.60;99.90
71155;DHT22;59375;53.216;5.728;2023-02-01T00:58:14;6.70;99.90
71155;DHT22;59375;53.216;5.728;2023-02-01T01:00:40;6.70;99.90
71155;DHT22;59375;53.216;5.728;2023-02-01T01:03:05;6.70;99.90
71155;DHT22;59375;53.216;5.728;2023-02-01T01:05:44;6.70;99.90
71155;DHT22;59375;53.216;5.728;2023-02-01T01:08:09;6.70;99.90
71155;DHT22;59375;53.216;5.728;2023-02-01T01:10:35;6.60;99.90
71155;DHT22;59375;53.216;5.728;2023-02-01T01:13:00;6.60;99.90
71155;DHT22;59375;53.216;5.728;2023-02-01T01:15:26;6.70;99.90
71155;DHT22;59375;53.216;5.728;2023-02-01T01:17:51;6.70;99.90
71155;DHT22;59375;53.216;5.728;2023-02-01T01:20:17;6.70;99.90
71155;DHT22;59375;53.216;5.728;2023-02-01T01:22:42;6.70;99.90
71155;DHT22;59375;53.216;5.728;2023-02-01T01:25:08;6.70;99.90
71155;DHT22;59375;53.216;5.728;2023-02-01T01:27:33;6.60;99.90
71155;DHT22;59375;53.216;5.728;2023-02-01T01:29:58;6.60;99.90
71155;DHT22;59375;53.216;5.728;2023-02-01T01:32:24;6.60;99.90
71155;DHT22;59375;53.216;5.728;2023-02-01T01:34:49;6.60;99.90
71155;DHT22;59375;53.216;5.728;2023-02-01T01:37:15;6.50;99.90
71155;DHT22;59375;53.216;5.728;2023-02-01T01:39:40;6.50;99.90
71155;DHT22;59375;53.216;5.728;2023-02-01T01:42:08;6.50;99.90
71155;DHT22;59375;53.216;5.728;2023-02-01T01:47:18;6.50;99.90
71155;DHT22;59375;53.216;5.728;2023-02-01T01:49:43;6.50;99.90
71155;DHT22;59375;53.216;5.728;2023-02-01T01:52:09;6.40;99.90
71155;DHT22;59375;53.216;5.728;2023-02-01T01:54:37;6.40;99.90
71155;DHT22;59375;53.216;5.728;2023-02-01T01:57:04;6.40;99.90
71155;DHT22;59375;53.216;5.728;2023-02-01T01:59:31;6.40;99.90
71155;DHT22;59375;53.216;5.728;2023-02-01T02:01:57;6.40;99.90
71155;DHT22;59375;53.216;5.728;2023-02-01T02:04:23;6.40;99.90
71155;DHT22;59375;53.216;5.728;2023-02-01T02:06:50;6.40;99.90
71155;DHT22;59375;53.216;5.728;2023-02-01T02:09:16;6.40;99.90
71155;DHT22;59375;53.216;5.728;2023-02-01T02:11:42;6.50;99.90
71155;DHT22;59375;53.216;5.728;2023-02-01T02:14:08;6.50;99.90
71155;DHT22;59375;53.216;5.728;2023-02-01T02:24:49;6.50;99.90
71155;DHT22;59375;53.216;5.728;2023-02-01T02:27:22;6.50;99.90
71155;DHT22;59375;53.216;5.728;2023-02-01T02:35:14;6.50;99.90
71155;DHT22;59375;53.216;5.728;2023-02-01T02:38:02;6.60;99.90
71155;DHT22;59375;53.216;5.728;2023-02-01T02:40:36;6.60;99.90
71155;DHT22;59375;53.216;5.728;2023-02-01T02:48:38;6.60;99.90
71155;DHT22;59375;53.216;5.728;2023-02-01T02:53:59;6.60;99.90
71155;DHT22;59375;53.216;5.728;2023-02-01T02:56:44;6.60;99.90
71155;DHT22;59375;53.216;5.728;2023-02-01T02:59:28;6.60;99.90
71155;DHT22;59375;53.216;5.728;2023-02-01T03:02:13;6.60;99.90
71155;DHT22;59375;53.216;5.728;2023-02-01T03:04:58;6.60;99.90
71155;DHT22;59375;53.216;5.728;2023-02-01T03:10:09;6.60;99.90
71155;DHT22;59375;53.216;5.728;2023-02-01T03:12:36;6.60;99.90
71155;DHT22;59375;53.216;5.728;2023-02-01T03:15:24;6.60;99.90
71155;DHT22;59375;53.216;5.728;2023-02-01T03:17:51;6.60;99.90
71155;DHT22;59375;53.216;5.728;2023-02-01T03:20:18;6.60;99.90
71155;DHT22;59375;53.216;5.728;2023-02-01T03:22:45;6.60;99.90
71155;DHT22;59375;53.216;5.728;2023-02-01T03:25:12;6.70;99.90
71155;DHT22;59375;53.216;5.728;2023-02-01T03:32:43;6.70;99.90
71155;DHT22;59375;53.216;5.728;2023-02-01T03:35:31;6.70;99.90
71155;DHT22;59375;53.216;5.728;2023-02-01T03:38:01;6.70;99.90
71155;DHT22;59375;53.216;5.728;2023-02-01T03:40:28;6.70;99.90
71155;DHT22;59375;53.216;5.728;2023-02-01T03:42:58;6.70;99.90
71155;DHT22;59375;53.216;5.728;2023-02-01T03:47:50;6.70;99.90
71155;DHT22;59375;53.216;5.728;2023-02-01T03:50:17;6.70;99.90
71155;DHT22;59375;53.216;5.728;2023-02-01T03:52:45;6.70;99.90
71155;DHT22;59375;53.216;5.728;2023-02-01T03:55:12;6.70;99.90
71155;DHT22;59375;53.216;5.728;2023-02-01T03:57:44;6.70;99.90
71155;DHT22;59375;53.216;5.728;2023-02-01T04:00:22;6.60;99.90
71155;DHT22;59375;53.216;5.728;2023-02-01T04:02:48;6.60;99.90
71155;DHT22;59375;53.216;5.728;2023-02-01T04:05:13;6.60;99.90
71155;DHT22;59375;53.216;5.728;2023-02-01T04:07:39;6.60;99.90
71155;DHT22;59375;53.216;5.728;2023-02-01T04:10:05;6.60;99.90
71155;DHT22;59375;53.216;5.728;2023-02-01T04:12:30;6.60;99.90
71155;DHT22;59375;53.216;5.728;2023-02-01T04:14:56;6.60;99.90
71155;DHT22;59375;53.216;5.728;2023-02-01T04:17:21;6.50;99.90
71155;DHT22;59375;53.216;5.728;2023-02-01T04:19:47;6.50;99.90
71155;DHT22;59375;53.216;5.728;2023-02-01T04:22:12;6.50;99.90
71155;DHT22;59375;53.216;5.728;2023-02-01T04:24:38;6.40;99.90
71155;DHT22;59375;53.216;5.728;2023-02-01T04:27:03;6.40;99.90
71155;DHT22;59375;53.216;5.728;2023-02-01T04:29:29;6.40;99.90
71155;DHT22;59375;53.216;5.728;2023-02-01T04:31:54;6.30;99.90
71155;DHT22;59375;53.216;5.728;2023-02-01T04:34:20;6.30;99.90
71155;DHT22;59375;53.216;5.728;2023-02-01T04:36:48;6.30;99.90
71155;DHT22;59375;53.216;5.728;2023-02-01T04:39:13;6.30;99.90
71155;DHT22;59375;53.216;5.728;2023-02-01T04:41:39;6.30;99.90
71155;DHT22;59375;53.216;5.728;2023-02-01T04:44:04;6.30;99.90
71155;DHT22;59375;53.216;5.728;2023-02-01T04:46:29;6.30;99.90
71155;DHT22;59375;53.216;5.728;2023-02-01T04:48:55;6.40;99.90
71155;DHT22;59375;53.216;5.728;2023-02-01T04:51:20;6.40;99.90
71155;DHT22;59375;53.216;5.728;2023-02-01T04:53:46;6.40;99.90
71155;DHT22;59375;53.216;5.728;2023-02-01T04:56:11;6.50;99.90
71155;DHT22;59375;53.216;5.728;2023-02-01T04:58:37;6.50;99.90
71155;DHT22;59375;53.216;5.728;2023-02-01T05:01:05;6.60;99.90
71155;DHT22;59375;53.216;5.728;2023-02-01T05:03:32;6.60;99.90
71155;DHT22;59375;53.216;5.728;2023-02-01T05:05:57;6.60;99.90
71155;DHT22;59375;53.216;5.728;2023-02-01T05:08:23;6.60;99.90
71155;DHT22;59375;53.216;5.728;2023-02-01T05:10:50;6.60;99.90
71155;DHT22;59375;53.216;5.728;2023-02-01T05:13:15;6.60;99.90
71155;DHT22;59375;53.216;5.728;2023-02-01T05:15:59;6.60;99.90
71155;DHT22;59375;53.216;5.728;2023-02-01T05:18:25;6.50;99.90
71155;DHT22;59375;53.216;5.728;2023-02-01T05:20:50;6.50;99.90
71155;DHT22;59375;53.216;5.728;2023-02-01T05:23:16;6.50;99.90
71155;DHT22;59375;53.216;5.728;2023-02-01T05:25:41;6.50;99.90
71155;DHT22;59375;53.216;5.728;2023-02-01T05:28:07;6.50;99.90
71155;DHT22;59375;53.216;5.728;2023-02-01T05:30:32;6.50;99.90
71155;DHT22;59375;53.216;5.728;2023-02-01T05:33:00;6.50;99.90
71155;DHT22;59375;53.216;5.728;2023-02-01T05:35:25;6.50;99.90
71155;DHT22;59375;53.216;5.728;2023-02-01T05:37:51;6.50;99.90
71155;DHT22;59375;53.216;5.728;2023-02-01T05:40:16;6.40;99.90
71155;DHT22;59375;53.216;5.728;2023-02-01T05:42:42;6.40;99.90
71155;DHT22;59375;53.216;5.728;2023-02-01T05:45:07;6.40;99.90
71155;DHT22;59375;53.216;5.728;2023-02-01T05:47:33;6.40;99.90
71155;DHT22;59375;53.216;5.728;2023-02-01T05:49:58;6.40;99.90
71155;DHT22;59375;53.216;5.728;2023-02-01T05:52:24;6.40;99.90
71155;DHT22;59375;53.216;5.728;2023-02-01T05:54:49;6.30;99.90
71155;DHT22;59375;53.216;5.728;2023-02-01T05:57:15;6.30;99.90
71155;DHT22;59375;53.216;5.728;2023-02-01T05:59:40;6.30;99.90
71155;DHT22;59375;53.216;5.728;2023-02-01T06:02:07;6.40;99.90
71155;DHT22;59375;53.216;5.728;2023-02-01T06:04:32;6.30;99.90
71155;DHT22;59375;53.216;5.728;2023-02-01T06:06:58;6.30;99.90
71155;DHT22;59375;53.216;5.728;2023-02-01T06:09:23;6.30;99.90
71155;DHT22;59375;53.216;5.728;2023-02-01T06:11:49;6.30;99.90
71155;DHT22;59375;53.216;5.728;2023-02-01T06:14:14;6.30;99.90
71155;DHT22;59375;53.216;5.728;2023-02-01T06:16:39;6.40;99.90
71155;DHT22;59375;53.216;5.728;2023-02-01T06:19:05;6.40;99.90
71155;DHT22;59375;53.216;5.728;2023-02-01T06:21:30;6.40;99.90
71155;DHT22;59375;53.216;5.728;2023-02-01T06:23:56;6.40;99.90
71155;DHT22;59375;53.216;5.728;2023-02-01T06:26:22;6.40;99.90
71155;DHT22;59375;53.216;5.728;2023-02-01T06:28:48;6.40;99.90
71155;DHT22;59375;53.216;5.728;2023-02-01T06:31:14;6.40;99.90
71155;DHT22;59375;53.216;5.728;2023-02-01T06:33:39;6.50;99.90
71155;DHT22;59375;53.216;5.728;2023-02-01T06:36:06;6.40;99.90
71155;DHT22;59375;53.216;5.728;2023-02-01T06:38:32;6.40;99.90
71155;DHT22;59375;53.216;5.728;2023-02-01T06:41:00;6.40;99.90
71155;DHT22;59375;53.216;5.728;2023-02-01T06:43:26;6.40;99.90
71155;DHT22;59375;53.216;5.728;2023-02-01T06:45:52;6.40;99.90
71155;DHT22;59375;53.216;5.728;2023-02-01T06:48:17;6.40;99.90
71155;DHT22;59375;53.216;5.728;2023-02-01T06:50:43;6.30;99.90
71155;DHT22;59375;53.216;5.728;2023-02-01T06:53:08;6.30;99.90
71155;DHT22;59375;53.216;5.728;2023-02-01T06:55:34;6.30;99.90
71155;DHT22;59375;53.216;5.728;2023-02-01T06:57:59;6.30;99.90
71155;DHT22;59375;53.216;5.728;2023-02-01T07:00:26;6.30;99.90
71155;DHT22;59375;53.216;5.728;2023-02-01T07:02:51;6.30;99.90
71155;DHT22;59375;53.216;5.728;2023-02-01T07:05:17;6.30;99.90
71155;DHT22;59375;53.216;5.728;2023-02-01T07:07:42;6.30;99.90
71155;DHT22;59375;53.216;5.728;2023-02-01T07:10:08;6.30;99.90
71155;DHT22;59375;53.216;5.728;2023-02-01T07:12:34;6.20;99.90
71155;DHT22;59375;53.216;5.728;2023-02-01T07:15:00;6.20;99.90
71155;DHT22;59375;53.216;5.728;2023-02-01T07:17:26;6.20;99.90
71155;DHT22;59375;53.216;5.728;2023-02-01T07:19:54;6.20;99.90
71155;DHT22;59375;53.216;5.728;2023-02-01T07:22:19;6.20;99.90
71155;DHT22;59375;53.216;5.728;2023-02-01T07:24:45;6.20;99.90
71155;DHT22;59375;53.216;5.728;2023-02-01T07:27:10;6.20;99.90
71155;DHT22;59375;53.216;5.728;2023-02-01T07:29:36;6.20;99.90
71155;DHT22;59375;53.216;5.728;2023-02-01T07:32:01;6.30;99.90
71155;DHT22;59375;53.216;5.728;2023-02-01T07:34:27;6.30;99.90
71155;DHT22;59375;53.216;5.728;2023-02-01T07:36:53;6.30;99.90
71155;DHT22;59375;53.216;5.728;2023-02-01T07:39:18;6.40;99.90
71155;DHT22;59375;53.216;5.728;2023-02-01T07:41:44;6.30;99.90
71155;DHT22;59375;53.216;5.728;2023-02-01T07:44:10;6.30;99.90
71155;DHT22;59375;53.216;5.728;2023-02-01T07:46:36;6.30;99.90
71155;DHT22;59375;53.216;5.728;2023-02-01T07:49:01;6.30;99.90
71155;DHT22;59375;53.216;5.728;2023-02-01T07:51:27;6.30;99.90
71155;DHT22;59375;53.216;5.728;2023-02-01T07:53:52;6.40;99.90
71155;DHT22;59375;53.216;5.728;2023-02-01T07:56:18;6.40;99.90
71155;DHT22;59375;53.216;5.728;2023-02-01T07:58:48;6.40;99.90
71155;DHT22;59375;53.216;5.728;2023-02-01T08:01:14;6.40;99.90
71155;DHT22;59375;53.216;5.728;2023-02-01T08:03:47;6.40;99.90
71155;DHT22;59375;53.216;5.728;2023-02-01T08:06:13;6.40;99.90
71155;DHT22;59375;53.216;5.728;2023-02-01T08:08:38;6.40;99.90
71155;DHT22;59375;53.216;5.728;2023-02-01T08:11:04;6.40;99.90
71155;DHT22;59375;53.216;5.728;2023-02-01T08:13:30;6.50;99.90
71155;DHT22;59375;53.216;5.728;2023-02-01T08:15:59;6.50;99.90
71155;DHT22;59375;53.216;5.728;2023-02-01T08:18:25;6.50;99.90
71155;DHT22;59375;53.216;5.728;2023-02-01T08:20:50;6.60;99.90
71155;DHT22;59375;53.216;5.728;2023-02-01T08:23:16;6.60;99.90
71155;DHT22;59375;53.216;5.728;2023-02-01T08:25:42;6.60;99.90
71155;DHT22;59375;53.216;5.728;2023-02-01T08:28:08;6.60;99.90
71155;DHT22;59375;53.216;5.728;2023-02-01T08:30:33;6.60;99.90
71155;DHT22;59375;53.216;5.728;2023-02-01T08:32:59;6.60;99.90
71155;DHT22;59375;53.216;5.728;2023-02-01T08:35:24;6.60;99.90
71155;DHT22;59375;53.216;5.728;2023-02-01T08:37:50;6.60;99.90
71155;DHT22;59375;53.216;5.728;2023-02-01T08:40:16;6.70;99.90
71155;DHT22;59375;53.216;5.728;2023-02-01T08:42:41;6.70;99.90
71155;DHT22;59375;53.216;5.728;2023-02-01T08:45:16;6.60;99.90
71155;DHT22;59375;53.216;5.728;2023-02-01T08:47:42;6.70;99.90
71155;DHT22;59375;53.216;5.728;2023-02-01T08:50:08;6.60;99.90
71155;DHT22;59375;53.216;5.728;2023-02-01T08:52:33;6.70;99.90
71155;DHT22;59375;53.216;5.728;2023-02-01T08:54:59;6.60;99.90
71155;DHT22;59375;53.216;5.728;2023-02-01T08:57:24;6.70;99.90
71155;DHT22;59375;53.216;5.728;2023-02-01T08:59:50;6.70;99.90
71155;DHT22;59375;53.216;5.728;2023-02-01T09:02:16;6.70;99.90
71155;DHT22;59375;53.216;5.728;2023-02-01T09:04:41;6.70;99.90
71155;DHT22;59375;53.216;5.728;2023-02-01T09:07:07;6.70;99.90
71155;DHT22;59375;53.216;5.728;2023-02-01T09:09:33;6.70;99.90
71155;DHT22;59375;53.216;5.728;2023-02-01T09:11:59;6.70;99.90
71155;DHT22;59375;53.216;5.728;2023-02-01T09:14:24;6.70;99.90
71155;DHT22;59375;53.216;5.728;2023-02-01T09:16:49;6.70;99.90
71155;DHT22;59375;53.216;5.728;2023-02-01T09:19:15;6.80;99.90
71155;DHT22;59375;53.216;5.728;2023-02-01T09:21:40;6.80;99.90
71155;DHT22;59375;53.216;5.728;2023-02-01T09:24:06;6.80;99.90
71155;DHT22;59375;53.216;5.728;2023-02-01T09:26:32;6.80;99.90
71155;DHT22;59375;53.216;5.728;2023-02-01T09:28:58;6.80;99.90
71155;DHT22;59375;53.216;5.728;2023-02-01T09:31:23;6.80;99.90
71155;DHT22;59375;53.216;5.728;2023-02-01T09:33:49;6.80;99.90
71155;DHT22;59375;53.216;5.728;2023-02-01T09:36:14;6.80;99.90
71155;DHT22;59375;53.216;5.728;2023-02-01T09:38:39;6.80;99.90
71155;DHT22;59375;53.216;5.728;2023-02-01T09:41:20;6.80;99.90
71155;DHT22;59375;53.216;5.728;2023-02-01T09:44:08;6.80;99.90
71155;DHT22;59375;53.216;5.728;2023-02-01T09:46:38;6.80;99.90
71155;DHT22;59375;53.216;5.728;2023-02-01T09:49:04;6.80;99.90
71155;DHT22;59375;53.216;5.728;2023-02-01T09:51:35;6.80;99.90
71155;DHT22;59375;53.216;5.728;2023-02-01T09:54:22;6.80;99.90
71155;DHT22;59375;53.216;5.728;2023-02-01T09:59:24;6.80;99.90
71155;DHT22;59375;53.216;5.728;2023-02-01T10:01:51;6.90;99.90
71155;DHT22;59375;53.216;5.728;2023-02-01T10:04:17;6.90;99.90
71155;DHT22;59375;53.216;5.728;2023-02-01T10:14:39;7.20;99.90
71155;DHT22;59375;53.216;5.728;2023-02-01T10:22:09;7.40;99.90
71155;DHT22;59375;53.216;5.728;2023-02-01T10:27:33;7.40;99.90
71155;DHT22;59375;53.216;5.728;2023-02-01T10:29:59;7.50;99.90
71155;DHT22;59375;53.216;5.728;2023-02-01T10:32:29;7.60;99.90
71155;DHT22;59375;53.216;5.728;2023-02-01T10:34:57;7.60;99.90
71155;DHT22;59375;53.216;5.728;2023-02-01T10:37:25;7.60;99.90
71155;DHT22;59375;53.216;5.728;2023-02-01T10:39:55;7.60;99.90
71155;DHT22;59375;53.216;5.728;2023-02-01T10:42:22;7.60;99.90
71155;DHT22;59375;53.216;5.728;2023-02-01T10:44:48;7.60;99.90
71155;DHT22;59375;53.216;5.728;2023-02-01T10:47:14;7.60;99.90
71155;DHT22;59375;53.216;5.728;2023-02-01T10:49:43;7.60;99.90
71155;DHT22;59375;53.216;5.728;2023-02-01T10:52:12;7.60;99.90
71155;DHT22;59375;53.216;5.728;2023-02-01T10:54:39;7.70;99.90
71155;DHT22;59375;53.216;5.728;2023-02-01T10:57:25;7.70;99.90
71155;DHT22;59375;53.216;5.728;2023-02-01T10:59:51;7.80;99.90
71155;DHT22;59375;53.216;5.728;2023-02-01T11:02:24;7.70;99.90
71155;DHT22;59375;53.216;5.728;2023-02-01T11:04:58;7.70;99.90
71155;DHT22;59375;53.216;5.728;2023-02-01T11:07:24;7.60;99.90
71155;DHT22;59375;53.216;5.728;2023-02-01T11:09:51;7.60;99.90
71155;DHT22;59375;53.216;5.728;2023-02-01T11:14:55;7.60;99.90
71155;DHT22;59375;53.216;5.728;2023-02-01T11:17:24;7.70;99.90
71155;DHT22;59375;53.216;5.728;2023-02-01T11:20:01;7.70;99.90
71155;DHT22;59375;53.216;5.728;2023-02-01T11:22:28;7.60;99.90
71155;DHT22;59375;53.216;5.728;2023-02-01T11:24:55;7.60;99.90
71155;DHT22;59375;53.216;5.728;2023-02-01T11:27:21;7.50;99.90
71155;DHT22;59375;53.216;5.728;2023-02-01T11:29:49;7.50;99.90
71155;DHT22;59375;53.216;5.728;2023-02-01T11:32:16;7.60;99.90
71155;DHT22;59375;53.216;5.728;2023-02-01T11:34:44;7.60;99.90
71155;DHT22;59375;53.216;5.728;2023-02-01T11:37:44;7.70;99.90
71155;DHT22;59375;53.216;5.728;2023-02-01T11:40:08;7.70;99.90
71155;DHT22;59375;53.216;5.728;2023-02-01T11:42:54;7.70;99.90
71155;DHT22;59375;53.216;5.728;2023-02-01T11:45:23;7.70;99.90
71155;DHT22;59375;53.216;5.728;2023-02-01T11:47:51;7.80;99.90
71155;DHT22;59375;53.216;5.728;2023-02-01T11:50:18;7.90;99.90
71155;DHT22;59375;53.216;5.728;2023-02-01T11:56:02;8.50;99.90
71155;DHT22;59375;53.216;5.728;2023-02-01T11:58:46;8.50;99.90
71155;DHT22;59375;53.216;5.728;2023-02-01T12:04:04;8.20;99.90
71155;DHT22;59375;53.216;5.728;2023-02-01T12:06:54;8.20;99.90
71155;DHT22;59375;53.216;5.728;2023-02-01T12:09:32;8.10;99.90
71155;DHT22;59375;53.216;5.728;2023-02-01T12:20:16;7.90;99.90
71155;DHT22;59375;53.216;5.728;2023-02-01T12:32:51;8.10;99.90
71155;DHT22;59375;53.216;5.728;2023-02-01T12:35:36;8.10;99.90
71155;DHT22;59375;53.216;5.728;2023-02-01T12:43:20;8.20;99.90
71155;DHT22;59375;53.216;5.728;2023-02-01T12:46:04;8.30;99.90
71155;DHT22;59375;53.216;5.728;2023-02-01T12:48:38;8.50;99.90
71155;DHT22;59375;53.216;5.728;2023-02-01T12:51:23;8.80;99.90
71155;DHT22;59375;53.216;5.728;2023-02-01T12:53:51;8.80;99.90
71155;DHT22;59375;53.216;5.728;2023-02-01T12:56:29;8.80;99.90
71155;DHT22;59375;53.216;5.728;2023-02-01T12:58:56;8.70;99.90
71155;DHT22;59375;53.216;5.728;2023-02-01T13:03:57;8.40;99.90
71155;DHT22;59375;53.216;5.728;2023-02-01T13:06:38;8.30;99.90
71155;DHT22;59375;53.216;5.728;2023-02-01T13:09:12;8.30;99.90
71155;DHT22;59375;53.216;5.728;2023-02-01T13:11:42;8.20;99.90
71155;DHT22;59375;53.216;5.728;2023-02-01T13:14:14;8.20;99.90
71155;DHT22;59375;53.216;5.728;2023-02-01T13:16:43;8.10;99.90
71155;DHT22;59375;53.216;5.728;2023-02-01T13:19:27;8.10;99.90
71155;DHT22;59375;53.216;5.728;2023-02-01T13:21:55;8.10;99.90
71155;DHT22;59375;53.216;5.728;2023-02-01T13:24:30;8.10;99.90
71155;DHT22;59375;53.216;5.728;2023-02-01T13:26:56;8.10;99.90
71155;DHT22;59375;53.216;5.728;2023-02-01T13:29:22;8.10;99.90
71155;DHT22;59375;53.216;5.728;2023-02-01T13:32:04;8.10;99.90
71155;DHT22;59375;53.216;5.728;2023-02-01T13:42:22;8.60;99.90
71155;DHT22;59375;53.216;5.728;2023-02-01T13:44:49;8.70;99.90
71155;DHT22;59375;53.216;5.728;2023-02-01T13:47:21;9.10;99.90
71155;DHT22;59375;53.216;5.728;2023-02-01T13:49:48;9.10;99.90
71155;DHT22;59375;53.216;5.728;2023-02-01T13:52:31;9.00;99.90
71155;DHT22;59375;53.216;5.728;2023-02-01T13:55:01;8.80;99.90
71155;DHT22;59375;53.216;5.728;2023-02-01T14:00:06;8.50;99.90
71155;DHT22;59375;53.216;5.728;2023-02-01T14:02:36;8.40;99.90
71155;DHT22;59375;53.216;5.728;2023-02-01T14:05:01;8.40;99.90
71155;DHT22;59375;53.216;5.728;2023-02-01T14:07:27;8.30;99.90
71155;DHT22;59375;53.216;5.728;2023-02-01T14:09:53;8.40;99.90
71155;DHT22;59375;53.216;5.728;2023-02-01T14:15:22;8.50;99.90
71155;DHT22;59375;53.216;5.728;2023-02-01T14:17:48;8.50;99.90
71155;DHT22;59375;53.216;5.728;2023-02-01T14:20:36;8.50;99.90
71155;DHT22;59375;53.216;5.728;2023-02-01T14:23:03;8.40;99.90
71155;DHT22;59375;53.216;5.728;2023-02-01T14:25:32;8.40;99.90
71155;DHT22;59375;53.216;5.728;2023-02-01T14:27:58;8.40;99.90
71155;DHT22;59375;53.216;5.728;2023-02-01T14:30:23;8.60;99.90
71155;DHT22;59375;53.216;5.728;2023-02-01T14:32:49;8.90;99.90
71155;DHT22;59375;53.216;5.728;2023-02-01T14:35:18;9.10;99.90
71155;DHT22;59375;53.216;5.728;2023-02-01T14:37:45;9.20;99.90
71155;DHT22;59375;53.216;5.728;2023-02-01T14:42:43;9.10;99.90
71155;DHT22;59375;53.216;5.728;2023-02-01T14:57:57;8.60;99.90
71155;DHT22;59375;53.216;5.728;2023-02-01T15:00:26;8.50;99.90
71155;DHT22;59375;53.216;5.728;2023-02-01T15:02:52;8.50;99.90
71155;DHT22;59375;53.216;5.728;2023-02-01T15:05:26;8.40;99.90
71155;DHT22;59375;53.216;5.728;2023-02-01T15:07:51;8.40;99.90
71155;DHT22;59375;53.216;5.728;2023-02-01T15:10:18;8.40;99.90
71155;DHT22;59375;53.216;5.728;2023-02-01T15:12:44;8.30;99.90
71155;DHT22;59375;53.216;5.728;2023-02-01T15:17:39;8.10;99.90
71155;DHT22;59375;53.216;5.728;2023-02-01T15:20:17;8.00;99.90
71155;DHT22;59375;53.216;5.728;2023-02-01T15:22:51;7.90;99.90
71155;DHT22;59375;53.216;5.728;2023-02-01T15:25:18;7.90;99.90
71155;DHT22;59375;53.216;5.728;2023-02-01T15:27:44;7.90;99.90
71155;DHT22;59375;53.216;5.728;2023-02-01T15:30:17;7.90;99.90
71155;DHT22;59375;53.216;5.728;2023-02-01T15:32:43;7.90;99.90
71155;DHT22;59375;53.216;5.728;2023-02-01T15:37:53;7.80;99.90
71155;DHT22;59375;53.216;5.728;2023-02-01T15:40:38;7.80;99.90
71155;DHT22;59375;53.216;5.728;2023-02-01T15:43:17;7.70;99.90
71155;DHT22;59375;53.216;5.728;2023-02-01T15:45:43;7.60;99.90
71155;DHT22;59375;53.216;5.728;2023-02-01T15:48:14;7.60;99.90
71155;DHT22;59375;53.216;5.728;2023-02-01T15:50:45;7.50;99.90
71155;DHT22;59375;53.216;5.728;2023-02-01T15:53:13;7.50;99.90
71155;DHT22;59375;53.216;5.728;2023-02-01T15:55:42;7.50;99.90
71155;DHT22;59375;53.216;5.728;2023-02-01T15:58:14;7.40;99.90
71155;DHT22;59375;53.216;5.728;2023-02-01T16:00:42;7.40;99.90
71155;DHT22;59375;53.216;5.728;2023-02-01T16:03:23;7.40;99.90
71155;DHT22;59375;53.216;5.728;2023-02-01T16:05:54;7.40;99.90
71155;DHT22;59375;53.216;5.728;2023-02-01T16:08:23;7.40;99.90
71155;DHT22;59375;53.216;5.728;2023-02-01T16:10:53;7.40;99.90
71155;DHT22;59375;53.216;5.728;2023-02-01T16:13:19;7.40;99.90
71155;DHT22;59375;53.216;5.728;2023-02-01T16:15:45;7.40;99.90
71155;DHT22;59375;53.216;5.728;2023-02-01T16:18:12;7.30;99.90
71155;DHT22;59375;53.216;5.728;2023-02-01T16:20:38;7.30;99.90
71155;DHT22;59375;53.216;5.728;2023-02-01T16:23:04;7.30;99.90
71155;DHT22;59375;53.216;5.728;2023-02-01T16:25:29;7.30;99.90
71155;DHT22;59375;53.216;5.728;2023-02-01T16:27:55;7.30;99.90
71155;DHT22;59375;53.216;5.728;2023-02-01T16:30:20;7.30;99.90
71155;DHT22;59375;53.216;5.728;2023-02-01T16:33:11;7.30;99.90
71155;DHT22;59375;53.216;5.728;2023-02-01T16:35:37;7.30;99.90
71155;DHT22;59375;53.216;5.728;2023-02-01T16:38:03;7.20;99.90
71155;DHT22;59375;53.216;5.728;2023-02-01T16:40:34;7.20;99.90
71155;DHT22;59375;53.216;5.728;2023-02-01T16:43:00;7.10;99.90
71155;DHT22;59375;53.216;5.728;2023-02-01T16:45:25;7.10;99.90
71155;DHT22;59375;53.216;5.728;2023-02-01T16:47:51;7.10;99.90
71155;DHT22;59375;53.216;5.728;2023-02-01T16:50:20;7.10;99.90
71155;DHT22;59375;53.216;5.728;2023-02-01T16:52:45;7.10;99.90
71155;DHT22;59375;53.216;5.728;2023-02-01T16:55:15;7.10;99.90
71155;DHT22;59375;53.216;5.728;2023-02-01T16:57:41;7.00;99.90
71155;DHT22;59375;53.216;5.728;2023-02-01T17:00:08;7.00;99.90
71155;DHT22;59375;53.216;5.728;2023-02-01T17:02:33;7.00;99.90
71155;DHT22;59375;53.216;5.728;2023-02-01T17:04:59;6.90;99.90
71155;DHT22;59375;53.216;5.728;2023-02-01T17:07:24;6.90;99.90
71155;DHT22;59375;53.216;5.728;2023-02-01T17:09:51;6.90;99.90
71155;DHT22;59375;53.216;5.728;2023-02-01T17:12:24;6.90;99.90
71155;DHT22;59375;53.216;5.728;2023-02-01T17:14:50;6.90;99.90
71155;DHT22;59375;53.216;5.728;2023-02-01T17:17:16;6.90;99.90
71155;DHT22;59375;53.216;5.728;2023-02-01T17:19:42;6.90;99.90
71155;DHT22;59375;53.216;5.728;2023-02-01T17:22:08;6.90;99.90
71155;DHT22;59375;53.216;5.728;2023-02-01T17:24:33;7.00;99.90
71155;DHT22;59375;53.216;5.728;2023-02-01T17:26:58;7.00;99.90
71155;DHT22;59375;53.216;5.728;2023-02-01T17:29:24;7.00;99.90
71155;DHT22;59375;53.216;5.728;2023-02-01T17:31:50;7.00;99.90
71155;DHT22;59375;53.216;5.728;2023-02-01T17:34:17;7.10;99.90
71155;DHT22;59375;53.216;5.728;2023-02-01T17:36:44;7.00;99.90
71155;DHT22;59375;53.216;5.728;2023-02-01T17:39:09;7.10;99.90
71155;DHT22;59375;53.216;5.728;2023-02-01T17:41:35;7.00;99.90
71155;DHT22;59375;53.216;5.728;2023-02-01T17:44:01;7.00;99.90
71155;DHT22;59375;53.216;5.728;2023-02-01T17:46:27;7.00;99.90
71155;DHT22;59375;53.216;5.728;2023-02-01T17:48:53;7.00;99.90
71155;DHT22;59375;53.216;5.728;2023-02-01T17:51:20;6.90;99.90
71155;DHT22;59375;53.216;5.728;2023-02-01T17:53:46;6.90;99.90
71155;DHT22;59375;53.216;5.728;2023-02-01T17:56:16;6.90;99.90